createdAt,value
2018-02-22T00:03:40.211Z,59.23
2018-02-22T00:08:41.511Z,59.45
2018-02-22T00:13:42.835Z,59.55
2018-02-22T00:18:44.242Z,59.57
2018-02-22T00:23:45.673Z,60.13
2018-02-22T00:28:47.727Z,59.83
2018-02-22T00:33:49.215Z,59.84
2018-02-22T00:38:50.542Z,59.97
2018-02-22T00:43:51.902Z,60.09
2018-02-22T00:48:53.326Z,60.36
2018-02-22T00:53:55.415Z,60.69
2018-02-22T00:58:56.755Z,61.09
2018-02-22T01:03:58.138Z,61.63
2018-02-22T01:08:59.551Z,62.16
2018-02-22T01:14:00.915Z,62.60
2018-02-22T01:19:02.424Z,62.34
2018-02-22T01:24:03.760Z,62.73
2018-02-22T01:29:05.069Z,62.29
2018-02-22T01:34:06.684Z,62.19
2018-02-22T01:39:08.037Z,62.65
2018-02-22T01:44:09.378Z,62.90
2018-02-22T01:49:10.856Z,62.95
2018-02-22T01:54:12.213Z,63.14
2018-02-22T01:59:13.519Z,63.35
2018-02-22T02:04:15.624Z,63.43
2018-02-22T02:09:17.724Z,64.51
2018-02-22T02:14:19.062Z,65.38
2018-02-22T02:19:20.423Z,64.67
2018-02-22T02:24:21.768Z,64.59
2018-02-22T02:29:23.124Z,64.52
2018-02-22T02:34:24.460Z,65.36
2018-02-22T02:39:25.793Z,65.92
2018-02-22T02:44:27.115Z,65.77
2018-02-22T02:49:28.490Z,66.00
2018-02-22T02:54:29.831Z,66.18
2018-02-22T02:59:31.178Z,66.15
2018-02-22T03:04:32.535Z,66.47
2018-02-22T03:09:33.912Z,66.64
2018-02-22T03:14:35.986Z,66.57
2018-02-22T03:19:37.372Z,67.22
2018-02-22T03:24:38.815Z,67.59
2018-02-22T03:29:40.899Z,67.58
2018-02-22T03:34:42.295Z,67.39
2018-02-22T03:39:44.393Z,67.75
2018-02-22T03:44:45.754Z,67.93
2018-02-22T03:49:47.094Z,68.42
2018-02-22T03:54:49.251Z,68.76
2018-02-22T03:59:50.624Z,68.84
2018-02-22T04:04:51.975Z,69.51
2018-02-22T04:09:54.155Z,69.18
2018-02-22T04:14:55.506Z,68.68
2018-02-22T04:19:56.923Z,68.96
2018-02-22T04:24:58.258Z,69.08
2018-02-22T04:30:00.359Z,69.02
2018-02-22T04:35:02.461Z,68.95
2018-02-22T04:40:04.569Z,69.44
2018-02-22T04:45:06.020Z,69.90
2018-02-22T04:50:07.433Z,70.37
2018-02-22T04:55:08.782Z,70.51
2018-02-22T05:00:10.177Z,70.53
2018-02-22T05:05:11.507Z,70.23
2018-02-22T05:10:12.847Z,70.53
2018-02-22T05:15:14.295Z,71.30
2018-02-22T05:20:15.685Z,71.33
2018-02-22T05:25:17.103Z,71.30
2018-02-22T05:30:18.429Z,71.67
2018-02-22T05:35:20.719Z,71.71
2018-02-22T05:40:22.070Z,72.49
2018-02-22T05:45:23.410Z,71.95
2018-02-22T05:50:24.769Z,71.61
2018-02-22T05:55:26.932Z,71.49
2018-02-22T06:00:28.280Z,71.92
2018-02-22T06:05:29.614Z,72.39
2018-02-22T06:10:30.984Z,72.36
2018-02-22T06:15:32.352Z,72.36
2018-02-22T06:20:33.684Z,72.97
2018-02-22T06:25:35.040Z,72.86
2018-02-22T06:30:36.402Z,72.79
2018-02-22T06:35:38.561Z,72.31
2018-02-22T06:40:40.007Z,72.10
2018-02-22T06:45:42.332Z,71.97
2018-02-22T06:50:44.408Z,71.83
2018-02-22T06:55:45.726Z,72.57
2018-02-22T07:00:47.808Z,72.93
2018-02-22T07:05:49.177Z,72.42
2018-02-22T07:10:50.519Z,72.82
2018-02-22T07:15:51.874Z,72.26
2018-02-22T07:20:53.278Z,72.30
2018-02-22T07:25:55.462Z,72.19
2018-02-22T07:30:56.792Z,72.29
2018-02-22T07:35:58.872Z,72.83
2018-02-22T07:41:00.940Z,72.89
2018-02-22T07:46:02.319Z,72.98
2018-02-22T07:51:03.663Z,73.82
2018-02-22T07:56:05.022Z,72.88
2018-02-22T08:01:06.424Z,72.51
2018-02-22T08:06:07.853Z,72.03
2018-02-22T08:11:09.972Z,72.47
2018-02-22T08:16:11.362Z,72.57
2018-02-22T08:21:12.728Z,71.56
2018-02-22T08:26:14.083Z,71.88
2018-02-22T08:31:15.443Z,72.21
2018-02-22T08:36:16.844Z,71.43
2018-02-22T08:41:18.188Z,71.11
2018-02-22T08:46:19.540Z,70.09
2018-02-22T08:51:20.871Z,70.91
2018-02-22T08:56:22.972Z,71.21
2018-02-22T09:01:25.070Z,69.92
2018-02-22T09:06:26.458Z,69.40
2018-02-22T09:11:27.805Z,70.68
2018-02-22T09:16:29.183Z,70.58
2018-02-22T09:21:30.562Z,70.20
2018-02-22T09:26:31.926Z,69.33
2018-02-22T09:31:33.239Z,67.50
2018-02-22T09:36:34.602Z,66.48
2018-02-22T09:41:35.971Z,65.54
2018-02-22T09:46:37.332Z,64.96
2018-02-22T09:51:38.683Z,65.51
2018-02-22T09:56:40.103Z,65.83
2018-02-22T10:01:41.483Z,66.48
2018-02-22T10:06:42.826Z,67.02
2018-02-22T10:11:50.300Z,67.91
2018-02-22T10:16:52.366Z,67.53
2018-02-22T10:21:53.800Z,66.94
2018-02-22T10:26:55.167Z,66.41
2018-02-22T10:31:56.504Z,66.36
2018-02-22T10:36:57.855Z,65.42
2018-02-22T10:41:59.992Z,65.52
2018-02-22T10:47:01.378Z,65.15
2018-02-22T10:52:02.779Z,64.50
2018-02-22T10:57:04.100Z,64.42
2018-02-22T11:02:11.411Z,63.04
2018-02-22T11:07:12.803Z,62.67
2018-02-22T11:12:14.152Z,61.73
2018-02-22T11:17:16.346Z,61.47
2018-02-22T11:22:17.691Z,62.00
2018-02-22T11:27:19.028Z,61.46
2018-02-22T11:32:20.421Z,61.29
2018-02-22T11:37:22.583Z,60.48
2018-02-22T11:42:23.911Z,59.72
2018-02-22T11:47:25.252Z,58.21
2018-02-22T11:52:26.615Z,56.55
2018-02-22T11:57:28.729Z,56.79
2018-02-22T12:02:30.864Z,57.16
2018-02-22T12:07:32.182Z,55.89
2018-02-22T12:12:33.532Z,56.18
2018-02-22T12:17:34.868Z,55.64
2018-02-22T12:22:36.260Z,55.27
2018-02-22T12:27:37.636Z,55.12
2018-02-22T12:32:39.052Z,55.37
2018-02-22T12:37:40.454Z,55.50
2018-02-22T12:42:41.874Z,54.27
2018-02-22T12:47:43.240Z,52.87
2018-02-22T12:52:45.375Z,52.24
2018-02-22T12:57:46.742Z,51.82
2018-02-22T13:02:48.855Z,51.51
2018-02-22T13:07:50.227Z,51.13
2018-02-22T13:12:51.558Z,49.99
2018-02-22T13:17:52.938Z,48.38
2018-02-22T13:22:54.324Z,47.61
2018-02-22T13:27:55.712Z,48.36
2018-02-22T13:33:15.411Z,47.30
2018-02-22T13:38:35.171Z,46.07
2018-02-22T13:43:36.572Z,46.00
2018-02-22T13:54:26.381Z,44.41
2018-02-22T13:59:27.783Z,45.18
2018-02-22T14:04:29.125Z,44.70
2018-02-22T14:09:30.451Z,45.06
2018-02-22T14:14:31.830Z,45.07
2018-02-22T14:19:33.157Z,44.22
2018-02-22T14:24:34.526Z,43.05
2018-02-22T14:29:35.897Z,43.45
2018-02-22T14:34:37.324Z,43.29
2018-02-22T14:39:38.723Z,43.37
2018-02-22T14:44:40.174Z,42.21
2018-02-22T14:49:41.522Z,43.63
2018-02-22T14:54:43.635Z,44.15
2018-02-22T14:59:45.012Z,43.87
2018-02-22T15:04:47.124Z,43.78
2018-02-22T15:09:49.307Z,42.70
2018-02-22T15:14:50.626Z,41.82
2018-02-22T15:19:52.033Z,42.06
2018-02-22T15:24:53.408Z,42.06
2018-02-22T15:29:54.780Z,41.56
2018-02-22T15:34:56.879Z,41.94
2018-02-22T15:39:58.254Z,42.19
2018-02-22T15:44:59.658Z,41.79
2018-02-22T15:50:01.015Z,42.09
2018-02-22T15:55:02.438Z,42.17
2018-02-22T16:00:03.857Z,42.60
2018-02-22T16:10:39.862Z,43.05
2018-02-22T16:15:41.312Z,43.32
2018-02-22T16:20:42.733Z,44.07
2018-02-22T16:25:44.115Z,44.42
2018-02-22T16:30:45.530Z,45.00
2018-02-22T16:35:46.920Z,45.11
2018-02-22T16:40:48.285Z,45.04
2018-02-22T16:45:49.696Z,45.74
2018-02-22T16:50:51.073Z,46.04
2018-02-22T16:55:52.435Z,45.88
2018-02-22T17:00:55.376Z,46.17
2018-02-22T17:05:56.755Z,46.46
2018-02-22T17:10:58.854Z,46.60
2018-02-22T17:16:00.945Z,46.80
2018-02-22T17:21:02.309Z,47.44
2018-02-22T17:26:09.740Z,47.48
2018-02-22T17:31:17.160Z,47.98
2018-02-22T17:36:24.485Z,48.86
2018-02-22T17:41:32.134Z,49.48
2018-02-22T17:46:33.495Z,50.58
2018-02-22T17:51:34.980Z,51.06
2018-02-22T17:56:37.136Z,52.11
2018-02-22T18:01:38.497Z,52.27
2018-02-22T18:06:39.838Z,52.52
2018-02-22T18:11:41.213Z,52.95
2018-02-22T18:16:42.587Z,53.04
2018-02-22T18:21:44.013Z,53.10
2018-02-22T18:26:45.419Z,52.76
2018-02-22T18:31:47.656Z,53.11
2018-02-22T18:36:49.036Z,53.26
2018-02-22T18:41:53.187Z,53.44
2018-02-22T18:46:54.668Z,53.38
2018-02-22T18:51:56.061Z,53.62
2018-02-22T18:56:57.455Z,54.39
2018-02-22T19:01:59.574Z,54.59
2018-02-22T19:07:00.975Z,54.99
2018-02-22T19:12:02.401Z,55.33
2018-02-22T19:17:03.737Z,55.94
2018-02-22T19:22:05.112Z,55.80
2018-02-22T19:27:07.216Z,56.02
2018-02-22T19:32:08.635Z,56.41
2018-02-22T19:37:10.661Z,56.98
2018-02-22T19:42:12.106Z,56.85
2018-02-22T19:47:13.499Z,56.50
2018-02-22T19:52:14.929Z,56.60
2018-02-22T19:57:17.193Z,56.83
2018-02-22T20:02:18.568Z,57.15
2018-02-22T20:07:19.968Z,56.86
2018-02-22T20:12:21.407Z,56.62
2018-02-22T20:17:23.016Z,57.06
2018-02-22T20:22:25.101Z,57.62
2018-02-22T20:27:26.464Z,58.16
2018-02-22T20:32:27.814Z,58.68
2018-02-22T20:37:29.952Z,58.78
2018-02-22T20:42:31.484Z,59.27
2018-02-22T20:47:32.926Z,59.54
2018-02-22T20:52:41.153Z,59.52
2018-02-22T20:57:42.621Z,59.99
2018-02-22T21:02:44.056Z,60.29
2018-02-22T21:07:45.424Z,60.07
2018-02-22T21:12:46.736Z,60.22
2018-02-22T21:17:48.138Z,60.21
2018-02-22T21:22:49.651Z,60.86
2018-02-22T21:27:51.032Z,60.59
2018-02-22T21:32:52.372Z,60.93
2018-02-22T21:37:53.694Z,60.98
2018-02-22T21:42:55.040Z,61.55
2018-02-22T21:47:56.466Z,62.46
2018-02-22T21:52:57.840Z,63.12
2018-02-22T21:57:59.184Z,63.70
2018-02-22T22:03:01.280Z,62.90
2018-02-22T22:08:02.660Z,63.14
2018-02-22T22:13:04.608Z,62.79
2018-02-22T22:18:06.002Z,63.22
2018-02-22T22:23:07.399Z,63.59
2018-02-22T22:28:08.799Z,63.27
2018-02-22T22:33:10.185Z,63.28
2018-02-22T22:38:11.568Z,63.09
2018-02-22T22:43:13.103Z,63.25
2018-02-22T22:48:14.430Z,63.73
2018-02-22T22:53:16.665Z,64.22
2018-02-22T22:58:18.084Z,64.56
2018-02-22T23:03:19.414Z,64.41
2018-02-22T23:08:21.534Z,64.08
2018-02-22T23:13:23.588Z,63.98
2018-02-22T23:18:25.023Z,64.32
2018-02-22T23:23:27.131Z,64.40
2018-02-22T23:28:29.187Z,64.78
2018-02-22T23:33:30.657Z,65.31
2018-02-22T23:38:32.048Z,65.64
2018-02-22T23:43:33.514Z,65.51
2018-02-22T23:48:34.910Z,65.88
2018-02-22T23:53:36.988Z,66.76
2018-02-22T23:58:38.360Z,66.95
